Date,TemperatureHighF,TemperatureAvgF,TemperatureLowF,DewpointHighF,DewpointAvgF,DewpointLowF,HumidityHigh,HumidityAvg,HumidityLow,PressureMaxIn,PressureMinIn,WindSpeedMaxMPH,WindSpeedAvgMPH,GustSpeedMaxMPH,PrecipitationSumIn
2013-5-1,50,36,31,37,33,28,99,90,43,27.67,27.08,29,15,33,0.00
2013-5-2,57,41,31,31,26,2,99,59,11,27.76,27.52,24,7,24,0.00
2013-5-3,66,47,26,36,15,-8,91,43,5,27.55,27.20,20,5,20,0.00
2013-5-4,64,45,26,24,9,-9,71,34,6,27.34,27.23,26,9,26,0.00
2013-5-5,74,50,25,30,9,-12,79,32,3,27.40,27.23,18,4,18,0.00
2013-5-6,78,58,36,43,28,4,68,38,6,27.28,27.11,27,6,27,0.00
2013-5-7,74,59,51,53,48,34,98,67,44,27.17,27.02,25,9,25,0.00
2013-5-8,81,63,47,54,49,40,99,66,32,27.14,27.05,23,5,23,0.00
2013-5-9,68,57,46,52,46,43,93,70,45,27.26,27.11,22,7,22,0.00
2013-5-10,81,58,39,53,44,38,99,66,28,27.31,27.23,20,3,20,0.00
2013-5-11,75,60,46,47,21,-12,93,38,3,27.49,27.28,20,5,20,0.00
2013-5-12,89,65,39,50,38,20,76,41,13,27.34,27.17,15,3,15,0.00
2013-5-13,102,75,48,55,32,-8,80,35,3,27.20,27.05,14,1,15,0.00
2013-5-14,109,82,57,56,30,-5,53,24,3,27.08,27.08,20,3,20,0.00
2013-5-15,89,75,58,50,44,35,51,34,22,27.08,27.08,23,7,23,0.00
2013-5-16,90,66,56,57,50,42,91,60,29,27.08,27.08,34,4,34,0.00
2013-5-17,90,74,55,64,56,50,95,59,29,27.08,27.08,33,11,33,0.00
2013-5-18,88,72,60,66,61,47,93,70,43,27.08,27.08,26,10,26,0.00
2013-5-19,76,63,54,55,50,43,96,64,38,27.08,27.08,45,11,45,0.00
2013-5-20,69,59,53,53,46,40,93,64,39,27.08,27.08,37,14,37,0.00
2013-5-21,69,58,49,49,42,38,88,59,36,27.08,27.08,42,13,42,0.00
2013-5-22,79,60,43,49,44,42,96,61,33,27.08,27.08,57,7,57,0.00
2013-5-23,74,60,48,50,47,45,94,64,40,27.08,27.08,25,9,25,0.00
2013-5-24,86,68,56,67,56,49,95,69,35,27.08,27.08,51,20,51,0.00
2013-5-25,98,76,61,67,60,47,99,65,24,27.08,27.08,32,10,39,0.00
2013-5-26,98,80,64,64,57,50,94,51,22,0.00,40.00,15,3,16,0.00
2013-5-27,82,64,50,64,56,45,99,75,47,0.00,40.00,19,5,115,0.00
2013-5-28,87,74,58,67,58,51,99,64,30,0.00,40.00,25,10,25,0.00
2013-5-29,90,59,50,62,54,50,99,87,37,0.00,40.00,33,7,41,0.00
2013-5-30,80,63,46,52,45,38,99,55,26,0.00,40.00,28,6,31,0.00
2013-5-31,80,66,53,44,25,-11,71,35,3,0.00,40.00,35,16,35,0.00